createdAt,value
2018-02-14T00:00:57.291Z,101543.48
2018-02-14T00:03:59.183Z,101547.21
2018-02-14T00:07:01.087Z,101544.07
2018-02-14T00:10:02.983Z,101542.21
2018-02-14T00:13:04.880Z,101547.31
2018-02-14T00:16:06.762Z,101545.02
2018-02-14T00:19:08.658Z,101547.97
2018-02-14T00:22:10.562Z,101544.10
2018-02-14T00:25:12.459Z,101545.48
2018-02-14T00:28:14.355Z,101553.10
2018-02-14T00:31:16.238Z,101551.11
2018-02-14T00:34:18.142Z,101557.85
2018-02-14T00:37:20.044Z,101557.40
2018-02-14T00:40:21.936Z,101560.30
2018-02-14T00:43:23.951Z,101564.66
2018-02-14T00:46:25.831Z,101563.72
2018-02-14T00:49:27.723Z,101563.55
2018-02-14T00:52:29.618Z,101565.14
2018-02-14T00:55:31.511Z,101562.63
2018-02-14T00:58:33.436Z,101566.02
2018-02-14T01:01:35.312Z,101563.55
2018-02-14T01:04:37.203Z,101564.99
2018-02-14T01:07:39.090Z,101568.01
2018-02-14T01:10:40.999Z,101570.07
2018-02-14T01:13:42.890Z,101575.89
2018-02-14T01:16:44.782Z,101575.59
2018-02-14T01:19:50.851Z,101571.51
2018-02-14T01:22:52.799Z,101580.06
2018-02-14T01:25:54.775Z,101580.50
2018-02-14T01:28:56.691Z,101579.30
2018-02-14T01:31:58.664Z,101581.40
2018-02-14T01:35:00.563Z,101581.25
2018-02-14T01:38:02.454Z,101585.33
2018-02-14T01:41:04.665Z,101592.18
2018-02-14T01:44:06.559Z,101589.92
2018-02-14T01:47:08.450Z,101584.15
2018-02-14T01:50:10.347Z,101587.20
2018-02-14T01:53:12.250Z,101589.79
2018-02-14T01:56:14.139Z,101597.31
2018-02-14T01:59:16.032Z,101600.83
2018-02-14T02:02:17.931Z,101612.91
2018-02-14T02:05:19.823Z,101609.53
2018-02-14T02:08:21.729Z,101611.64
2018-02-14T02:11:23.614Z,101609.77
2018-02-14T02:14:25.535Z,101613.01
2018-02-14T02:17:27.516Z,101616.38
2018-02-14T02:20:29.398Z,101619.12
2018-02-14T02:23:31.299Z,101625.27
2018-02-14T02:26:33.202Z,101624.49
2018-02-14T02:29:35.398Z,101622.89
2018-02-14T02:32:37.299Z,101624.17
2018-02-14T02:35:39.196Z,101625.26
2018-02-14T02:38:41.088Z,101622.22
2018-02-14T02:41:43.010Z,101628.85
2018-02-14T02:44:44.984Z,101627.58
2018-02-14T02:47:46.882Z,101632.74
2018-02-14T02:50:48.776Z,101628.96
2018-02-14T02:53:50.667Z,101623.43
2018-02-14T02:56:52.807Z,101633.99
2018-02-14T02:59:54.771Z,101635.90
2018-02-14T03:02:56.663Z,101639.14
2018-02-14T03:05:58.555Z,101639.03
2018-02-14T03:09:00.459Z,101641.35
2018-02-14T03:12:02.346Z,101645.53
2018-02-14T03:15:04.239Z,101643.39
2018-02-14T03:18:06.145Z,101643.05
2018-02-14T03:21:08.039Z,101646.76
2018-02-14T03:24:09.938Z,101645.51
2018-02-14T03:27:11.826Z,101653.11
2018-02-14T03:30:13.723Z,101653.36
2018-02-14T03:33:15.631Z,101653.17
2018-02-14T03:36:17.537Z,101655.84
2018-02-14T03:39:19.506Z,101662.44
2018-02-14T03:42:21.407Z,101660.22
2018-02-14T03:45:23.296Z,101669.15
2018-02-14T03:48:25.199Z,101672.66
2018-02-14T03:51:27.129Z,101678.91
2018-02-14T03:54:29.095Z,101676.00
2018-02-14T03:57:30.986Z,101682.04
2018-02-14T04:00:32.878Z,101689.02
2018-02-14T04:03:34.779Z,101694.56
2018-02-14T04:06:36.900Z,101696.30
2018-02-14T04:09:38.779Z,101697.39
2018-02-14T04:12:40.674Z,101697.44
2018-02-14T04:15:42.572Z,101704.26
2018-02-14T04:18:44.470Z,101711.88
2018-02-14T04:21:46.363Z,101715.43
2018-02-14T04:24:48.255Z,101712.73
2018-02-14T04:27:50.291Z,101718.94
2018-02-14T04:30:52.255Z,101720.38
2018-02-14T04:33:54.143Z,101721.53
2018-02-14T04:36:56.043Z,101731.28
2018-02-14T04:39:57.937Z,101735.19
2018-02-14T04:42:59.863Z,101733.51
2018-02-14T04:46:01.827Z,101738.66
2018-02-14T04:49:03.750Z,101741.16
2018-02-14T04:52:05.629Z,101746.73
2018-02-14T04:55:07.559Z,101748.66
2018-02-14T04:58:09.522Z,101749.83
2018-02-14T05:01:11.420Z,101756.22
2018-02-14T05:04:13.319Z,101759.63
2018-02-14T05:07:15.202Z,101765.28
2018-02-14T05:10:17.100Z,101766.67
2018-02-14T05:13:18.991Z,101769.76
2018-02-14T05:16:20.884Z,101775.71
2018-02-14T05:19:22.792Z,101783.63
2018-02-14T05:22:24.682Z,101784.19
2018-02-14T05:25:26.582Z,101788.18
2018-02-14T05:28:28.471Z,101791.73
2018-02-14T05:31:30.367Z,101793.34
2018-02-14T05:34:32.262Z,101796.13
2018-02-14T05:37:34.155Z,101797.71
2018-02-14T05:40:36.055Z,101796.74
2018-02-14T05:43:37.975Z,101801.48
2018-02-14T05:46:39.964Z,101808.84
2018-02-14T05:49:41.963Z,101812.81
2018-02-14T05:52:43.935Z,101821.36
2018-02-14T05:55:46.139Z,101826.85
2018-02-14T05:58:48.039Z,101830.25
2018-02-14T06:01:49.939Z,101829.77
2018-02-14T06:04:51.831Z,101832.58
2018-02-14T06:07:53.719Z,101837.25
2018-02-14T06:10:55.623Z,101840.38
2018-02-14T06:13:57.539Z,101849.85
2018-02-14T06:16:59.518Z,101856.73
2018-02-14T06:20:01.416Z,101860.31
2018-02-14T06:23:03.308Z,101868.35
2018-02-14T06:26:05.199Z,101873.22
2018-02-14T06:29:07.096Z,101881.76
2018-02-14T06:32:08.959Z,101883.46
2018-02-14T06:35:10.831Z,101884.29
2018-02-14T06:38:12.711Z,101893.42
2018-02-14T06:41:14.583Z,101893.72
2018-02-14T06:44:16.446Z,101892.43
2018-02-14T06:47:18.314Z,101892.10
2018-02-14T06:50:20.182Z,101893.72
2018-02-14T06:53:22.059Z,101898.72
2018-02-14T06:56:23.990Z,101901.78
2018-02-14T06:59:25.867Z,101904.63
2018-02-14T07:02:27.750Z,101901.24
2018-02-14T07:05:29.619Z,101909.71
2018-02-14T07:08:31.499Z,101917.38
2018-02-14T07:11:33.399Z,101914.33
2018-02-14T07:14:35.270Z,101922.42
2018-02-14T07:17:37.148Z,101923.10
2018-02-14T07:20:39.019Z,101925.54
2018-02-14T07:23:40.983Z,101930.70
2018-02-14T07:26:42.852Z,101939.04
2018-02-14T07:29:44.727Z,101936.43
2018-02-14T07:32:46.601Z,101934.28
2018-02-14T07:35:48.474Z,101931.53
2018-02-14T07:38:50.351Z,101932.76
2018-02-14T07:41:52.835Z,101938.08
2018-02-14T07:44:54.714Z,101940.75
2018-02-14T07:47:56.579Z,101942.21
2018-02-14T07:50:58.455Z,101947.24
2018-02-14T07:57:01.871Z,101957.02
2018-02-14T08:00:03.979Z,101960.39
2018-02-14T08:03:05.846Z,101960.72
2018-02-14T08:06:07.714Z,101970.19
2018-02-14T08:09:09.588Z,101978.46
2018-02-14T08:12:11.455Z,101975.97
2018-02-14T08:15:13.351Z,101975.79
2018-02-14T08:18:15.220Z,101982.23
2018-02-14T08:21:17.099Z,101983.88
2018-02-14T08:24:18.979Z,101988.02
2018-02-14T08:27:20.841Z,101996.39
2018-02-14T08:30:22.716Z,102001.32
2018-02-14T08:33:24.584Z,101997.29
2018-02-14T08:36:26.451Z,102003.63
2018-02-14T08:39:28.362Z,102004.57
2018-02-14T08:42:30.210Z,102006.19
2018-02-14T08:45:32.079Z,102014.64
2018-02-14T08:48:33.951Z,102014.18
2018-02-14T08:51:35.831Z,102011.66
2018-02-14T08:54:37.704Z,102013.45
2018-02-14T08:57:39.579Z,102013.94
2018-02-14T09:00:41.449Z,102015.27
2018-02-14T09:03:43.627Z,102016.43
2018-02-14T09:06:45.514Z,102020.37
2018-02-14T09:09:47.378Z,102025.25
2018-02-14T09:12:49.259Z,102023.28
2018-02-14T09:15:51.136Z,102023.36
2018-02-14T09:18:53.014Z,102023.53
2018-02-14T09:21:54.889Z,102023.00
2018-02-14T09:24:56.762Z,102025.94
2018-02-14T09:27:58.655Z,102036.05
2018-02-14T09:31:00.535Z,102038.93
2018-02-14T09:34:02.411Z,102042.48
2018-02-14T09:37:04.295Z,102046.87
2018-02-14T09:40:06.158Z,102046.77
2018-02-14T09:43:08.034Z,102046.04
2018-02-14T09:46:09.911Z,102042.38
2018-02-14T09:49:11.986Z,102042.72
2018-02-14T09:52:13.869Z,102047.38
2018-02-14T09:55:15.747Z,102046.02
2018-02-14T09:58:17.620Z,102046.86
2018-02-14T10:01:19.540Z,102046.71
2018-02-14T10:04:21.375Z,102057.53
2018-02-14T10:07:23.247Z,102055.23
2018-02-14T10:10:25.143Z,102050.79
2018-02-14T10:13:27.019Z,102050.50
2018-02-14T10:16:28.890Z,102052.37
2018-02-14T10:19:30.779Z,102055.52
2018-02-14T10:22:32.660Z,102060.75
2018-02-14T10:25:34.543Z,102069.65
2018-02-14T10:28:36.415Z,102068.72
2018-02-14T10:31:38.319Z,102062.78
2018-02-14T10:34:40.483Z,102073.55
2018-02-14T10:37:42.353Z,102078.15
2018-02-14T10:40:44.320Z,102077.46
2018-02-14T10:43:46.215Z,102074.24
2018-02-14T10:46:48.115Z,102071.97
2018-02-14T10:49:50.007Z,102077.14
2018-02-14T10:52:51.875Z,102079.56
2018-02-14T10:55:53.798Z,102074.44
2018-02-14T10:58:55.707Z,102074.80
2018-02-14T11:02:01.896Z,102071.37
2018-02-14T11:05:07.959Z,102062.85
2018-02-14T11:08:09.875Z,102063.35
2018-02-14T11:11:11.771Z,102054.74
2018-02-14T11:14:13.667Z,102050.85
2018-02-14T11:17:15.566Z,102049.79
2018-02-14T11:20:17.462Z,102054.08
2018-02-14T11:23:19.355Z,102049.44
2018-02-14T11:26:21.255Z,102045.22
2018-02-14T11:29:23.160Z,102043.36
2018-02-14T11:32:25.035Z,102040.90
2018-02-14T11:35:26.952Z,102044.71
2018-02-14T11:38:28.908Z,102043.18
2018-02-14T11:41:30.875Z,102047.68
2018-02-14T11:44:32.786Z,102051.48
2018-02-14T11:47:34.847Z,102045.70
2018-02-14T11:50:36.775Z,102049.42
2018-02-14T11:53:38.735Z,102048.82
2018-02-14T11:56:40.611Z,102048.14
2018-02-14T11:59:42.563Z,102043.00
2018-02-14T12:02:44.544Z,102043.37
2018-02-14T12:05:46.511Z,102039.79
2018-02-14T12:08:48.482Z,102038.28
2018-02-14T12:11:50.350Z,102038.63
2018-02-14T12:14:52.231Z,102043.83
2018-02-14T12:17:54.142Z,102034.26
2018-02-14T12:20:56.076Z,102037.77
2018-02-14T12:27:21.618Z,102040.25
2018-02-14T12:30:23.527Z,102037.19
2018-02-14T12:33:25.498Z,102030.97
2018-02-14T12:36:27.483Z,102030.39
2018-02-14T12:39:29.440Z,102027.11
2018-02-14T12:42:31.371Z,102027.66
2018-02-14T12:45:33.255Z,102025.73
2018-02-14T12:48:35.177Z,102021.34
2018-02-14T12:51:37.138Z,102018.09
2018-02-14T12:54:39.111Z,102022.42
2018-02-14T12:57:42.035Z,102021.55
2018-02-14T13:00:44.027Z,102009.71
2018-02-14T13:03:45.923Z,102013.84
2018-02-14T13:06:47.823Z,102013.50
2018-02-14T13:09:51.089Z,102010.80
2018-02-14T13:12:53.052Z,102012.97
2018-02-14T13:15:54.943Z,102021.28
2018-02-14T13:18:56.843Z,102019.71
2018-02-14T13:21:58.839Z,102018.48
2018-02-14T13:25:00.744Z,102017.03
2018-02-14T13:28:02.732Z,102024.64
2018-02-14T13:31:04.622Z,102024.88
2018-02-14T13:34:06.527Z,102026.48
2018-02-14T13:37:08.543Z,102024.80
2018-02-14T13:40:10.526Z,102026.69
2018-02-14T13:43:13.447Z,102025.34
2018-02-14T13:46:15.443Z,102021.96
2018-02-14T13:49:17.455Z,102017.38
2018-02-14T13:52:19.434Z,102011.05
2018-02-14T13:55:21.436Z,102008.70
2018-02-14T13:58:23.323Z,102008.36
2018-02-14T14:01:25.327Z,102007.69
2018-02-14T14:04:27.225Z,102015.03
2018-02-14T14:07:29.475Z,102015.70
2018-02-14T14:10:31.426Z,102007.11
2018-02-14T14:13:33.471Z,102007.43
2018-02-14T14:16:35.597Z,102005.85
2018-02-14T14:19:37.623Z,102001.71
2018-02-14T14:22:39.539Z,102002.23
2018-02-14T14:25:41.422Z,102005.60
2018-02-14T14:28:43.531Z,102002.42
2018-02-14T14:31:45.523Z,102001.75
2018-02-14T14:34:47.475Z,102000.03
2018-02-14T14:37:49.420Z,102001.14
2018-02-14T14:40:51.434Z,102000.63
2018-02-14T14:43:53.456Z,102002.14
2018-02-14T14:46:56.474Z,102001.39
2018-02-14T14:49:58.534Z,102007.54
2018-02-14T14:53:00.471Z,102013.61
2018-02-14T14:56:02.431Z,102015.76
2018-02-14T14:59:04.497Z,102015.64
2018-02-14T15:02:06.428Z,102021.10
2018-02-14T15:05:09.462Z,102023.05
2018-02-14T15:08:11.566Z,102025.15
2018-02-14T15:11:13.655Z,102018.04
2018-02-14T15:14:15.563Z,102013.93
2018-02-14T15:17:17.554Z,102009.43
2018-02-14T15:20:19.631Z,102011.88
2018-02-14T15:23:21.631Z,102010.10
2018-02-14T15:26:23.791Z,102015.19
2018-02-14T15:29:25.847Z,102013.92
2018-02-14T15:32:27.844Z,102010.23
2018-02-14T15:35:29.840Z,102005.00
2018-02-14T15:38:32.871Z,101999.49
2018-02-14T15:41:34.759Z,101994.17
2018-02-14T15:44:36.763Z,101974.74
2018-02-14T15:47:38.659Z,101999.85
2018-02-14T15:50:41.571Z,102003.56
2018-02-14T15:53:43.636Z,102003.98
2018-02-14T15:56:45.566Z,102001.28
2018-02-14T15:59:47.475Z,102004.40
2018-02-14T16:02:50.413Z,102002.18
2018-02-14T16:05:52.383Z,102005.57
2018-02-14T16:08:54.655Z,102004.57
2018-02-14T16:11:56.639Z,102002.12
2018-02-14T16:14:58.578Z,102005.92
2018-02-14T16:18:01.604Z,102004.97
2018-02-14T16:21:03.719Z,102007.69
2018-02-14T16:24:05.699Z,102007.10
2018-02-14T16:27:07.791Z,102007.53
2018-02-14T16:30:09.703Z,102017.06
2018-02-14T16:33:11.607Z,102020.40
2018-02-14T16:36:15.723Z,102023.70
2018-02-14T16:39:17.727Z,102025.48
2018-02-14T16:42:19.637Z,102039.84
2018-02-14T16:45:21.640Z,102046.15
2018-02-14T16:48:23.739Z,102049.40
2018-02-14T16:51:26.652Z,102044.72
2018-02-14T16:54:28.631Z,102043.03
2018-02-14T16:57:30.548Z,102042.01
2018-02-14T17:00:32.443Z,102033.35
2018-02-14T17:03:35.378Z,102038.77
2018-02-14T17:06:38.148Z,102034.13
2018-02-14T17:09:40.079Z,102037.78
2018-02-14T17:12:41.971Z,102040.63
2018-02-14T17:15:43.854Z,102044.02
2018-02-14T17:18:45.780Z,102047.93
2018-02-14T17:21:47.661Z,102048.95
2018-02-14T17:24:49.582Z,102051.10
2018-02-14T17:27:51.479Z,102052.84
2018-02-14T17:30:53.451Z,102055.83
2018-02-14T17:33:55.354Z,102056.32
2018-02-14T17:36:57.239Z,102055.41
2018-02-14T17:39:59.118Z,102044.68
2018-02-14T17:43:01.067Z,102045.23
2018-02-14T17:46:02.978Z,102045.40
2018-02-14T17:49:04.867Z,102049.78
2018-02-14T17:52:06.834Z,102038.96
2018-02-14T17:55:08.793Z,102055.34
2018-02-14T17:58:10.656Z,102058.52
2018-02-14T18:01:12.858Z,102058.26
2018-02-14T18:04:14.767Z,102060.64
2018-02-14T18:07:16.680Z,102064.03
2018-02-14T18:10:19.682Z,102062.17
2018-02-14T18:13:21.603Z,102063.54
2018-02-14T18:16:23.535Z,102067.94
2018-02-14T18:19:25.431Z,102077.79
2018-02-14T18:22:27.329Z,102078.01
2018-02-14T18:25:29.218Z,102082.51
2018-02-14T18:28:32.118Z,102093.82
2018-02-14T18:31:35.000Z,102095.77
2018-02-14T18:34:36.898Z,102095.69
2018-02-14T18:37:38.795Z,102094.81
2018-02-14T18:40:40.679Z,102095.14
2018-02-14T18:43:42.567Z,102095.77
2018-02-14T18:46:44.447Z,102091.85
2018-02-14T18:49:47.399Z,102090.58
2018-02-14T18:52:50.304Z,102089.91
2018-02-14T18:55:52.188Z,102084.04
2018-02-14T18:58:55.208Z,102073.53
2018-02-14T19:01:57.067Z,102074.12
2018-02-14T19:04:58.979Z,102074.32
2018-02-14T19:08:00.866Z,102071.01
2018-02-14T19:11:02.766Z,102077.90
2018-02-14T19:14:04.966Z,102084.20
2018-02-14T19:17:06.928Z,102082.97
2018-02-14T19:20:08.827Z,102080.22
2018-02-14T19:23:11.768Z,102082.80
2018-02-14T19:26:14.687Z,102091.36
2018-02-14T19:29:17.608Z,102096.75
2018-02-14T19:32:19.515Z,102098.08
2018-02-14T19:35:21.406Z,102103.49
2018-02-14T19:38:24.343Z,102110.38
2018-02-14T19:41:26.235Z,102107.96
2018-02-14T19:44:28.119Z,102105.07
2018-02-14T19:47:30.008Z,102108.48
2018-02-14T19:50:31.911Z,102098.25
2018-02-14T19:53:33.860Z,102096.80
2018-02-14T19:56:35.735Z,102096.82
2018-02-14T19:59:37.628Z,102098.20
2018-02-14T20:02:39.511Z,102095.79
2018-02-14T20:05:41.407Z,102085.42
2018-02-14T20:08:43.300Z,102071.05
2018-02-14T20:11:45.191Z,102067.13
2018-02-14T20:14:47.091Z,102078.60
2018-02-14T20:17:48.991Z,102088.36
2018-02-14T20:20:50.905Z,102094.15
2018-02-14T20:23:52.886Z,102090.10
2018-02-14T20:26:54.886Z,102082.52
2018-02-14T20:29:56.740Z,102084.56
2018-02-14T20:32:58.631Z,102076.06
2018-02-14T20:36:00.518Z,102078.58
2018-02-14T20:39:02.508Z,102088.58
2018-02-14T20:42:05.182Z,102098.96
2018-02-14T20:45:07.159Z,102103.10
2018-02-14T20:48:09.051Z,102108.52
2018-02-14T20:51:10.956Z,102111.44
2018-02-14T20:54:12.851Z,102109.29
2018-02-14T20:57:14.862Z,102104.68
2018-02-14T21:00:16.872Z,102109.99
2018-02-14T21:03:18.862Z,102101.63
2018-02-14T21:06:20.779Z,102095.62
2018-02-14T21:09:22.772Z,102091.23
2018-02-14T21:12:24.763Z,102087.90
2018-02-14T21:15:26.651Z,102084.67
2018-02-14T21:18:28.550Z,102095.81
2018-02-14T21:21:30.444Z,102090.92
2018-02-14T21:24:32.351Z,102096.58
2018-02-14T21:27:34.267Z,102095.74
2018-02-14T21:30:36.179Z,102101.14
2018-02-14T21:33:38.068Z,102092.92
2018-02-14T21:36:40.983Z,102087.74
2018-02-14T21:39:42.982Z,102083.00
2018-02-14T21:42:44.896Z,102076.97
2018-02-14T21:45:46.792Z,102068.07
2018-02-14T21:48:48.711Z,102060.93
2018-02-14T21:51:50.595Z,102057.94
2018-02-14T21:54:52.504Z,102051.49
2018-02-14T21:57:54.410Z,102051.58
2018-02-14T22:00:56.295Z,102041.62
2018-02-14T22:03:58.288Z,102042.25
2018-02-14T22:07:00.182Z,102039.81
2018-02-14T22:10:02.427Z,102041.57
2018-02-14T22:13:04.375Z,102036.27
2018-02-14T22:16:06.480Z,102035.57
2018-02-14T22:19:08.470Z,102045.54
2018-02-14T22:22:10.423Z,102042.73
2018-02-14T22:25:12.552Z,102042.48
2018-02-14T22:28:14.519Z,102037.03
2018-02-14T22:31:16.465Z,102033.18
2018-02-14T22:34:18.375Z,102031.96
2018-02-14T22:37:20.346Z,102027.79
2018-02-14T22:40:22.255Z,102029.01
2018-02-14T22:43:24.148Z,102028.19
2018-02-14T22:46:26.051Z,102032.56
2018-02-14T22:49:28.041Z,102040.56
2018-02-14T22:52:30.043Z,102043.76
2018-02-14T22:55:32.055Z,102049.25
2018-02-14T22:58:34.081Z,102053.95
2018-02-14T23:01:36.032Z,102060.25
2018-02-14T23:04:38.060Z,102060.64
2018-02-14T23:07:40.018Z,102054.90
2018-02-14T23:10:42.948Z,102053.82
2018-02-14T23:13:44.943Z,102043.75
2018-02-14T23:16:46.840Z,102037.46
2018-02-14T23:19:48.736Z,102032.85
2018-02-14T23:22:51.655Z,102037.24
2018-02-14T23:25:53.650Z,102036.61
2018-02-14T23:28:55.656Z,102039.79
2018-02-14T23:31:57.552Z,102031.53
2018-02-14T23:34:59.542Z,102030.63
2018-02-14T23:38:01.534Z,102028.25
2018-02-14T23:41:03.432Z,102026.08
2018-02-14T23:44:05.322Z,102015.45
2018-02-14T23:47:07.227Z,102001.40
2018-02-14T23:50:09.218Z,102007.66
2018-02-14T23:53:11.220Z,102006.02
2018-02-14T23:56:14.163Z,101999.93
2018-02-14T23:59:16.139Z,101997.84
